sensor_id;sensor_type;location;lat;lon;timestamp;P1;durP1;ratioP1;P2;durP2;ratioP2
17947;SDS011;9099;47.958;11.366;2023-07-13T00:00:44;2.47;;;2.20;;
17947;SDS011;9099;47.958;11.366;2023-07-13T00:03:11;1.90;;;1.63;;
17947;SDS011;9099;47.958;11.366;2023-07-13T00:05:38;2.17;;;1.90;;
17947;SDS011;9099;47.958;11.366;2023-07-13T00:08:07;2.13;;;1.92;;
17947;SDS011;9099;47.958;11.366;2023-07-13T00:10:38;1.98;;;1.88;;
17947;SDS011;9099;47.958;11.366;2023-07-13T00:13:06;1.90;;;1.80;;
17947;SDS011;9099;47.958;11.366;2023-07-13T00:15:33;1.77;;;1.67;;
17947;SDS011;9099;47.958;11.366;2023-07-13T00:18:01;2.10;;;1.90;;
17947;SDS011;9099;47.958;11.366;2023-07-13T00:20:28;2.13;;;1.88;;
17947;SDS011;9099;47.958;11.366;2023-07-13T00:22:54;2.08;;;1.88;;
17947;SDS011;9099;47.958;11.366;2023-07-13T00:25:23;1.95;;;1.85;;
17947;SDS011;9099;47.958;11.366;2023-07-13T00:27:53;2.08;;;1.98;;
17947;SDS011;9099;47.958;11.366;2023-07-13T00:30:20;2.00;;;1.85;;
17947;SDS011;9099;47.958;11.366;2023-07-13T00:32:47;3.63;;;1.80;;
17947;SDS011;9099;47.958;11.366;2023-07-13T00:35:14;2.65;;;1.85;;
17947;SDS011;9099;47.958;11.366;2023-07-13T00:37:41;2.55;;;2.03;;
17947;SDS011;9099;47.958;11.366;2023-07-13T00:40:09;2.10;;;2.00;;
17947;SDS011;9099;47.958;11.366;2023-07-13T00:42:39;2.10;;;1.92;;
17947;SDS011;9099;47.958;11.366;2023-07-13T00:45:07;1.90;;;1.80;;
17947;SDS011;9099;47.958;11.366;2023-07-13T00:48:12;3.22;;;2.20;;
17947;SDS011;9099;47.958;11.366;2023-07-13T00:50:43;2.42;;;2.28;;
17947;SDS011;9099;47.958;11.366;2023-07-13T00:53:12;2.00;;;1.90;;
17947;SDS011;9099;47.958;11.366;2023-07-13T00:55:40;2.33;;;2.00;;
17947;SDS011;9099;47.958;11.366;2023-07-13T00:58:08;2.58;;;2.20;;
17947;SDS011;9099;47.958;11.366;2023-07-13T01:00:35;2.35;;;2.25;;
17947;SDS011;9099;47.958;11.366;2023-07-13T01:03:04;2.42;;;2.22;;
17947;SDS011;9099;47.958;11.366;2023-07-13T01:05:31;2.25;;;2.05;;
17947;SDS011;9099;47.958;11.366;2023-07-13T01:08:00;2.13;;;1.90;;
17947;SDS011;9099;47.958;11.366;2023-07-13T01:10:29;2.55;;;2.35;;
17947;SDS011;9099;47.958;11.366;2023-07-13T01:13:04;2.17;;;2.03;;
17947;SDS011;9099;47.958;11.366;2023-07-13T01:15:37;1.98;;;1.80;;
17947;SDS011;9099;47.958;11.366;2023-07-13T01:18:05;2.78;;;1.75;;
17947;SDS011;9099;47.958;11.366;2023-07-13T01:20:33;1.80;;;1.70;;
17947;SDS011;9099;47.958;11.366;2023-07-13T01:23:03;1.90;;;1.80;;
17947;SDS011;9099;47.958;11.366;2023-07-13T01:25:32;2.22;;;2.00;;
17947;SDS011;9099;47.958;11.366;2023-07-13T01:28:00;2.42;;;2.20;;
17947;SDS011;9099;47.958;11.366;2023-07-13T01:30:27;3.13;;;2.00;;
17947;SDS011;9099;47.958;11.366;2023-07-13T01:32:54;1.83;;;1.73;;
17947;SDS011;9099;47.958;11.366;2023-07-13T01:35:20;1.95;;;1.85;;
17947;SDS011;9099;47.958;11.366;2023-07-13T01:37:46;2.05;;;1.90;;
17947;SDS011;9099;47.958;11.366;2023-07-13T01:40:15;1.80;;;1.70;;
17947;SDS011;9099;47.958;11.366;2023-07-13T01:42:41;1.70;;;1.60;;
17947;SDS011;9099;47.958;11.366;2023-07-13T01:45:09;1.70;;;1.60;;
17947;SDS011;9099;47.958;11.366;2023-07-13T01:47:36;2.30;;;2.10;;
17947;SDS011;9099;47.958;11.366;2023-07-13T01:50:03;2.30;;;2.10;;
17947;SDS011;9099;47.958;11.366;2023-07-13T01:52:31;2.50;;;2.13;;
17947;SDS011;9099;47.958;11.366;2023-07-13T01:54:57;2.03;;;1.92;;
17947;SDS011;9099;47.958;11.366;2023-07-13T01:57:26;2.08;;;1.85;;
17947;SDS011;9099;47.958;11.366;2023-07-13T01:59:52;1.63;;;1.50;;
17947;SDS011;9099;47.958;11.366;2023-07-13T02:02:19;2.15;;;1.63;;
17947;SDS011;9099;47.958;11.366;2023-07-13T02:04:46;1.90;;;1.80;;
17947;SDS011;9099;47.958;11.366;2023-07-13T02:07:13;1.80;;;1.70;;
17947;SDS011;9099;47.958;11.366;2023-07-13T02:09:41;1.90;;;1.80;;
17947;SDS011;9099;47.958;11.366;2023-07-13T02:12:08;2.10;;;1.90;;
17947;SDS011;9099;47.958;11.366;2023-07-13T02:14:36;1.60;;;1.50;;
17947;SDS011;9099;47.958;11.366;2023-07-13T02:17:03;2.28;;;1.77;;
17947;SDS011;9099;47.958;11.366;2023-07-13T02:19:30;2.50;;;1.90;;
17947;SDS011;9099;47.958;11.366;2023-07-13T02:21:57;1.83;;;1.73;;
17947;SDS011;9099;47.958;11.366;2023-07-13T02:24:24;2.00;;;1.90;;
17947;SDS011;9099;47.958;11.366;2023-07-13T02:26:52;2.05;;;1.92;;
17947;SDS011;9099;47.958;11.366;2023-07-13T02:29:19;1.80;;;1.70;;
17947;SDS011;9099;47.958;11.366;2023-07-13T02:31:47;2.22;;;1.85;;
17947;SDS011;9099;47.958;11.366;2023-07-13T02:34:14;2.10;;;2.00;;
17947;SDS011;9099;47.958;11.366;2023-07-13T02:36:40;2.42;;;2.20;;
17947;SDS011;9099;47.958;11.366;2023-07-13T02:39:07;1.92;;;1.77;;
17947;SDS011;9099;47.958;11.366;2023-07-13T02:41:37;2.35;;;2.10;;
17947;SDS011;9099;47.958;11.366;2023-07-13T02:44:04;3.15;;;2.10;;
17947;SDS011;9099;47.958;11.366;2023-07-13T02:46:33;2.53;;;2.20;;
17947;SDS011;9099;47.958;11.366;2023-07-13T02:49:02;2.03;;;1.92;;
17947;SDS011;9099;47.958;11.366;2023-07-13T02:51:30;2.40;;;2.20;;
17947;SDS011;9099;47.958;11.366;2023-07-13T02:53:58;2.22;;;1.83;;
17947;SDS011;9099;47.958;11.366;2023-07-13T02:56:27;3.20;;;2.20;;
17947;SDS011;9099;47.958;11.366;2023-07-13T02:58:55;3.53;;;2.15;;
17947;SDS011;9099;47.958;11.366;2023-07-13T03:01:22;2.55;;;2.38;;
17947;SDS011;9099;47.958;11.366;2023-07-13T03:03:49;2.40;;;2.20;;
17947;SDS011;9099;47.958;11.366;2023-07-13T03:06:18;2.92;;;2.72;;
17947;SDS011;9099;47.958;11.366;2023-07-13T03:08:46;2.58;;;2.40;;
17947;SDS011;9099;47.958;11.366;2023-07-13T03:11:14;3.38;;;3.08;;
17947;SDS011;9099;47.958;11.366;2023-07-13T03:13:43;2.85;;;2.65;;
17947;SDS011;9099;47.958;11.366;2023-07-13T03:16:10;2.55;;;2.35;;
17947;SDS011;9099;47.958;11.366;2023-07-13T03:18:37;2.75;;;2.40;;
17947;SDS011;9099;47.958;11.366;2023-07-13T03:21:05;2.55;;;2.35;;
17947;SDS011;9099;47.958;11.366;2023-07-13T03:23:33;2.55;;;2.35;;
17947;SDS011;9099;47.958;11.366;2023-07-13T03:26:01;2.60;;;2.40;;
17947;SDS011;9099;47.958;11.366;2023-07-13T03:28:28;2.65;;;2.30;;
17947;SDS011;9099;47.958;11.366;2023-07-13T03:30:58;5.55;;;2.70;;
17947;SDS011;9099;47.958;11.366;2023-07-13T03:33:26;2.45;;;2.25;;
17947;SDS011;9099;47.958;11.366;2023-07-13T03:35:53;2.45;;;2.25;;
17947;SDS011;9099;47.958;11.366;2023-07-13T03:38:20;2.45;;;2.25;;
17947;SDS011;9099;47.958;11.366;2023-07-13T03:40:48;2.58;;;2.22;;
17947;SDS011;9099;47.958;11.366;2023-07-13T03:43:15;2.33;;;1.95;;
17947;SDS011;9099;47.958;11.366;2023-07-13T03:45:41;2.55;;;2.08;;
17947;SDS011;9099;47.958;11.366;2023-07-13T03:48:08;2.58;;;2.10;;
17947;SDS011;9099;47.958;11.366;2023-07-13T03:50:35;2.25;;;2.15;;
17947;SDS011;9099;47.958;11.366;2023-07-13T03:53:03;1.98;;;1.88;;
17947;SDS011;9099;47.958;11.366;2023-07-13T03:55:34;2.15;;;1.95;;
17947;SDS011;9099;47.958;11.366;2023-07-13T04:00:51;2.15;;;2.00;;
17947;SDS011;9099;47.958;11.366;2023-07-13T04:03:18;2.05;;;1.95;;
17947;SDS011;9099;47.958;11.366;2023-07-13T04:05:44;2.17;;;1.98;;
17947;SDS011;9099;47.958;11.366;2023-07-13T04:08:11;2.53;;;1.90;;
17947;SDS011;9099;47.958;11.366;2023-07-13T04:10:38;2.47;;;2.28;;
17947;SDS011;9099;47.958;11.366;2023-07-13T04:13:07;2.25;;;2.05;;
17947;SDS011;9099;47.958;11.366;2023-07-13T04:15:34;3.05;;;1.80;;
17947;SDS011;9099;47.958;11.366;2023-07-13T04:18:01;2.38;;;2.20;;
17947;SDS011;9099;47.958;11.366;2023-07-13T04:20:28;1.92;;;1.80;;
17947;SDS011;9099;47.958;11.366;2023-07-13T04:22:55;1.65;;;1.55;;
17947;SDS011;9099;47.958;11.366;2023-07-13T04:25:22;2.30;;;2.10;;
17947;SDS011;9099;47.958;11.366;2023-07-13T04:27:49;1.85;;;1.73;;
17947;SDS011;9099;47.958;11.366;2023-07-13T04:30:18;2.20;;;2.00;;
17947;SDS011;9099;47.958;11.366;2023-07-13T04:32:45;2.00;;;1.90;;
17947;SDS011;9099;47.958;11.366;2023-07-13T04:35:12;2.00;;;1.90;;
17947;SDS011;9099;47.958;11.366;2023-07-13T04:37:39;2.28;;;2.08;;
17947;SDS011;9099;47.958;11.366;2023-07-13T04:40:06;1.90;;;1.80;;
17947;SDS011;9099;47.958;11.366;2023-07-13T04:42:37;1.95;;;1.85;;
17947;SDS011;9099;47.958;11.366;2023-07-13T04:45:04;1.90;;;1.80;;
17947;SDS011;9099;47.958;11.366;2023-07-13T04:47:33;2.08;;;1.98;;
17947;SDS011;9099;47.958;11.366;2023-07-13T04:50:00;2.22;;;1.92;;
17947;SDS011;9099;47.958;11.366;2023-07-13T04:52:26;2.55;;;2.35;;
17947;SDS011;9099;47.958;11.366;2023-07-13T04:54:53;1.80;;;1.70;;
17947;SDS011;9099;47.958;11.366;2023-07-13T04:57:20;3.42;;;1.70;;
17947;SDS011;9099;47.958;11.366;2023-07-13T04:59:47;2.10;;;1.35;;
17947;SDS011;9099;47.958;11.366;2023-07-13T05:02:14;2.42;;;1.63;;
17947;SDS011;9099;47.958;11.366;2023-07-13T05:04:42;2.55;;;1.50;;
17947;SDS011;9099;47.958;11.366;2023-07-13T05:07:09;1.67;;;1.58;;
17947;SDS011;9099;47.958;11.366;2023-07-13T05:09:36;2.05;;;1.65;;
17947;SDS011;9099;47.958;11.366;2023-07-13T05:12:05;1.90;;;1.80;;
17947;SDS011;9099;47.958;11.366;2023-07-13T05:14:33;1.40;;;1.30;;
17947;SDS011;9099;47.958;11.366;2023-07-13T05:17:00;1.90;;;1.80;;
17947;SDS011;9099;47.958;11.366;2023-07-13T05:19:26;1.60;;;1.50;;
17947;SDS011;9099;47.958;11.366;2023-07-13T05:21:55;1.92;;;1.70;;
17947;SDS011;9099;47.958;11.366;2023-07-13T05:24:22;1.75;;;1.65;;
17947;SDS011;9099;47.958;11.366;2023-07-13T05:26:49;2.20;;;1.52;;
17947;SDS011;9099;47.958;11.366;2023-07-13T05:29:16;1.90;;;1.80;;
17947;SDS011;9099;47.958;11.366;2023-07-13T05:31:43;2.53;;;2.00;;
17947;SDS011;9099;47.958;11.366;2023-07-13T05:34:10;1.70;;;1.60;;
17947;SDS011;9099;47.958;11.366;2023-07-13T05:36:37;2.22;;;2.00;;
17947;SDS011;9099;47.958;11.366;2023-07-13T05:39:05;2.30;;;2.10;;
17947;SDS011;9099;47.958;11.366;2023-07-13T05:41:32;2.03;;;1.92;;
17947;SDS011;9099;47.958;11.366;2023-07-13T05:43:59;1.98;;;1.75;;
17947;SDS011;9099;47.958;11.366;2023-07-13T05:46:26;2.10;;;2.00;;
17947;SDS011;9099;47.958;11.366;2023-07-13T05:48:52;2.10;;;1.90;;
17947;SDS011;9099;47.958;11.366;2023-07-13T05:51:19;2.47;;;2.10;;
17947;SDS011;9099;47.958;11.366;2023-07-13T05:53:46;2.20;;;1.98;;
17947;SDS011;9099;47.958;11.366;2023-07-13T05:56:14;2.40;;;2.20;;
17947;SDS011;9099;47.958;11.366;2023-07-13T05:58:41;3.42;;;2.08;;
17947;SDS011;9099;47.958;11.366;2023-07-13T06:01:11;2.10;;;2.00;;
17947;SDS011;9099;47.958;11.366;2023-07-13T06:03:39;2.08;;;1.90;;
17947;SDS011;9099;47.958;11.366;2023-07-13T06:06:07;2.25;;;2.00;;
17947;SDS011;9099;47.958;11.366;2023-07-13T06:08:35;2.88;;;2.15;;
17947;SDS011;9099;47.958;11.366;2023-07-13T06:11:03;1.90;;;1.77;;
17947;SDS011;9099;47.958;11.366;2023-07-13T06:13:33;2.72;;;2.20;;
17947;SDS011;9099;47.958;11.366;2023-07-13T06:16:00;2.47;;;2.25;;
17947;SDS011;9099;47.958;11.366;2023-07-13T06:18:29;2.25;;;2.05;;
17947;SDS011;9099;47.958;11.366;2023-07-13T06:20:56;2.35;;;2.13;;
17947;SDS011;9099;47.958;11.366;2023-07-13T06:23:22;2.50;;;2.22;;
17947;SDS011;9099;47.958;11.366;2023-07-13T06:25:49;2.20;;;2.00;;
17947;SDS011;9099;47.958;11.366;2023-07-13T06:28:16;2.80;;;2.30;;
17947;SDS011;9099;47.958;11.366;2023-07-13T06:30:44;3.33;;;2.30;;
17947;SDS011;9099;47.958;11.366;2023-07-13T06:33:11;2.47;;;2.28;;
17947;SDS011;9099;47.958;11.366;2023-07-13T06:35:38;2.50;;;2.30;;
17947;SDS011;9099;47.958;11.366;2023-07-13T06:38:05;2.95;;;2.42;;
17947;SDS011;9099;47.958;11.366;2023-07-13T06:40:31;2.97;;;2.30;;
17947;SDS011;9099;47.958;11.366;2023-07-13T06:42:58;2.75;;;2.40;;
17947;SDS011;9099;47.958;11.366;2023-07-13T06:45:25;2.30;;;2.20;;
17947;SDS011;9099;47.958;11.366;2023-07-13T06:47:53;3.83;;;2.50;;
17947;SDS011;9099;47.958;11.366;2023-07-13T06:50:20;3.00;;;2.70;;
17947;SDS011;9099;47.958;11.366;2023-07-13T06:52:47;2.67;;;2.47;;
17947;SDS011;9099;47.958;11.366;2023-07-13T06:55:14;2.42;;;2.22;;
17947;SDS011;9099;47.958;11.366;2023-07-13T06:57:40;2.50;;;2.33;;
17947;SDS011;9099;47.958;11.366;2023-07-13T07:00:08;2.45;;;2.25;;
17947;SDS011;9099;47.958;11.366;2023-07-13T07:02:35;3.15;;;2.55;;
17947;SDS011;9099;47.958;11.366;2023-07-13T07:05:04;2.80;;;2.50;;
17947;SDS011;9099;47.958;11.366;2023-07-13T07:07:31;3.10;;;2.72;;
17947;SDS011;9099;47.958;11.366;2023-07-13T07:09:58;2.65;;;2.45;;
17947;SDS011;9099;47.958;11.366;2023-07-13T07:12:24;2.90;;;2.70;;
17947;SDS011;9099;47.958;11.366;2023-07-13T07:14:51;3.13;;;2.90;;
17947;SDS011;9099;47.958;11.366;2023-07-13T07:17:18;2.40;;;2.10;;
17947;SDS011;9099;47.958;11.366;2023-07-13T07:19:45;3.05;;;2.50;;
17947;SDS011;9099;47.958;11.366;2023-07-13T07:22:13;2.45;;;2.35;;
17947;SDS011;9099;47.958;11.366;2023-07-13T07:24:40;4.60;;;2.20;;
17947;SDS011;9099;47.958;11.366;2023-07-13T07:27:07;4.72;;;2.88;;
17947;SDS011;9099;47.958;11.366;2023-07-13T07:29:34;2.55;;;2.35;;
17947;SDS011;9099;47.958;11.366;2023-07-13T07:32:00;2.58;;;2.38;;
17947;SDS011;9099;47.958;11.366;2023-07-13T07:34:27;2.53;;;2.33;;
17947;SDS011;9099;47.958;11.366;2023-07-13T07:36:54;2.88;;;2.20;;
17947;SDS011;9099;47.958;11.366;2023-07-13T07:39:24;2.42;;;2.22;;
17947;SDS011;9099;47.958;11.366;2023-07-13T07:41:51;3.15;;;2.40;;
17947;SDS011;9099;47.958;11.366;2023-07-13T07:44:17;2.20;;;2.00;;
17947;SDS011;9099;47.958;11.366;2023-07-13T07:46:44;2.80;;;2.17;;
17947;SDS011;9099;47.958;11.366;2023-07-13T07:49:11;4.32;;;2.22;;
17947;SDS011;9099;47.958;11.366;2023-07-13T07:51:38;2.47;;;2.20;;
17947;SDS011;9099;47.958;11.366;2023-07-13T07:54:05;2.05;;;1.75;;
17947;SDS011;9099;47.958;11.366;2023-07-13T07:56:33;2.05;;;1.77;;
17947;SDS011;9099;47.958;11.366;2023-07-13T07:59:00;4.10;;;1.80;;
17947;SDS011;9099;47.958;11.366;2023-07-13T08:01:27;2.97;;;2.00;;
17947;SDS011;9099;47.958;11.366;2023-07-13T08:03:54;2.58;;;1.52;;
17947;SDS011;9099;47.958;11.366;2023-07-13T08:06:21;1.80;;;1.70;;
17947;SDS011;9099;47.958;11.366;2023-07-13T08:08:48;2.72;;;1.90;;
17947;SDS011;9099;47.958;11.366;2023-07-13T08:11:15;3.13;;;1.63;;
17947;SDS011;9099;47.958;11.366;2023-07-13T08:13:44;2.53;;;1.48;;
17947;SDS011;9099;47.958;11.366;2023-07-13T08:16:11;3.22;;;1.88;;
17947;SDS011;9099;47.958;11.366;2023-07-13T08:18:38;3.13;;;1.80;;
17947;SDS011;9099;47.958;11.366;2023-07-13T08:21:05;2.25;;;1.65;;
17947;SDS011;9099;47.958;11.366;2023-07-13T08:23:32;2.90;;;1.83;;
17947;SDS011;9099;47.958;11.366;2023-07-13T08:25:59;2.03;;;1.83;;
17947;SDS011;9099;47.958;11.366;2023-07-13T08:28:27;2.40;;;1.55;;
17947;SDS011;9099;47.958;11.366;2023-07-13T08:30:56;2.10;;;1.42;;
17947;SDS011;9099;47.958;11.366;2023-07-13T08:33:27;2.15;;;1.60;;
17947;SDS011;9099;47.958;11.366;2023-07-13T08:35:54;2.15;;;1.95;;
17947;SDS011;9099;47.958;11.366;2023-07-13T08:38:20;2.75;;;1.80;;
17947;SDS011;9099;47.958;11.366;2023-07-13T08:40:53;1.85;;;1.70;;
17947;SDS011;9099;47.958;11.366;2023-07-13T08:43:23;1.70;;;1.60;;
17947;SDS011;9099;47.958;11.366;2023-07-13T08:45:53;2.63;;;1.65;;
17947;SDS011;9099;47.958;11.366;2023-07-13T08:48:27;1.63;;;1.52;;
17947;SDS011;9099;47.958;11.366;2023-07-13T08:50:57;1.80;;;1.70;;
17947;SDS011;9099;47.958;11.366;2023-07-13T08:53:30;1.88;;;1.77;;
17947;SDS011;9099;47.958;11.366;2023-07-13T08:56:01;1.70;;;1.60;;
17947;SDS011;9099;47.958;11.366;2023-07-13T08:58:28;2.83;;;1.80;;
17947;SDS011;9099;47.958;11.366;2023-07-13T09:00:58;1.75;;;1.65;;
17947;SDS011;9099;47.958;11.366;2023-07-13T09:03:31;2.35;;;1.67;;
17947;SDS011;9099;47.958;11.366;2023-07-13T09:06:03;1.90;;;1.70;;
17947;SDS011;9099;47.958;11.366;2023-07-13T09:08:38;1.90;;;1.60;;
17947;SDS011;9099;47.958;11.366;2023-07-13T09:11:24;1.80;;;1.52;;
17947;SDS011;9099;47.958;11.366;2023-07-13T09:14:04;2.67;;;1.85;;
17947;SDS011;9099;47.958;11.366;2023-07-13T09:16:44;2.97;;;1.70;;
17947;SDS011;9099;47.958;11.366;2023-07-13T09:19:13;1.70;;;1.60;;
17947;SDS011;9099;47.958;11.366;2023-07-13T09:21:47;2.38;;;1.63;;
17947;SDS011;9099;47.958;11.366;2023-07-13T09:24:28;1.88;;;1.50;;
17947;SDS011;9099;47.958;11.366;2023-07-13T09:27:02;1.73;;;1.63;;
17947;SDS011;9099;47.958;11.366;2023-07-13T09:29:35;2.15;;;1.60;;
17947;SDS011;9099;47.958;11.366;2023-07-13T09:32:10;2.42;;;1.42;;
17947;SDS011;9099;47.958;11.366;2023-07-13T09:34:39;2.42;;;1.70;;
17947;SDS011;9099;47.958;11.366;2023-07-13T09:37:05;1.90;;;1.80;;
17947;SDS011;9099;47.958;11.366;2023-07-13T09:39:33;2.47;;;1.70;;
17947;SDS011;9099;47.958;11.366;2023-07-13T09:42:06;1.60;;;1.50;;
17947;SDS011;9099;47.958;11.366;2023-07-13T09:44:50;1.42;;;1.33;;
17947;SDS011;9099;47.958;11.366;2023-07-13T09:47:20;2.33;;;1.65;;
17947;SDS011;9099;47.958;11.366;2023-07-13T09:49:54;2.47;;;1.60;;
17947;SDS011;9099;47.958;11.366;2023-07-13T09:52:23;2.00;;;1.80;;
17947;SDS011;9099;47.958;11.366;2023-07-13T09:54:52;2.00;;;1.83;;
17947;SDS011;9099;47.958;11.366;2023-07-13T09:57:24;2.08;;;1.70;;
17947;SDS011;9099;47.958;11.366;2023-07-13T09:59:53;1.80;;;1.70;;
17947;SDS011;9099;47.958;11.366;2023-07-13T10:02:26;2.17;;;1.63;;
17947;SDS011;9099;47.958;11.366;2023-07-13T10:04:55;2.10;;;1.60;;
17947;SDS011;9099;47.958;11.366;2023-07-13T10:07:23;2.15;;;1.58;;
17947;SDS011;9099;47.958;11.366;2023-07-13T10:09:51;2.00;;;1.45;;
17947;SDS011;9099;47.958;11.366;2023-07-13T10:12:19;2.17;;;1.42;;
17947;SDS011;9099;47.958;11.366;2023-07-13T10:14:48;1.98;;;1.50;;
17947;SDS011;9099;47.958;11.366;2023-07-13T10:17:20;3.90;;;1.33;;
17947;SDS011;9099;47.958;11.366;2023-07-13T10:19:56;1.75;;;1.40;;
17947;SDS011;9099;47.958;11.366;2023-07-13T10:22:26;1.50;;;1.30;;
17947;SDS011;9099;47.958;11.366;2023-07-13T10:24:57;1.92;;;1.50;;
17947;SDS011;9099;47.958;11.366;2023-07-13T10:27:27;2.75;;;1.80;;
17947;SDS011;9099;47.958;11.366;2023-07-13T10:30:00;1.70;;;1.60;;
17947;SDS011;9099;47.958;11.366;2023-07-13T10:32:36;1.63;;;1.52;;
17947;SDS011;9099;47.958;11.366;2023-07-13T10:35:04;2.20;;;1.40;;
17947;SDS011;9099;47.958;11.366;2023-07-13T10:37:35;2.25;;;1.42;;
17947;SDS011;9099;47.958;11.366;2023-07-13T10:40:12;1.67;;;1.20;;
17947;SDS011;9099;47.958;11.366;2023-07-13T10:42:44;1.30;;;1.20;;
17947;SDS011;9099;47.958;11.366;2023-07-13T10:45:14;1.65;;;1.55;;
17947;SDS011;9099;47.958;11.366;2023-07-13T10:47:44;1.95;;;1.58;;
17947;SDS011;9099;47.958;11.366;2023-07-13T10:50:14;1.63;;;1.50;;
17947;SDS011;9099;47.958;11.366;2023-07-13T10:52:46;1.90;;;1.40;;
17947;SDS011;9099;47.958;11.366;2023-07-13T10:55:30;2.25;;;1.40;;
17947;SDS011;9099;47.958;11.366;2023-07-13T10:58:00;1.58;;;1.30;;
17947;SDS011;9099;47.958;11.366;2023-07-13T11:00:30;2.38;;;1.52;;
17947;SDS011;9099;47.958;11.366;2023-07-13T11:03:00;1.30;;;1.27;;
17947;SDS011;9099;47.958;11.366;2023-07-13T11:05:31;3.72;;;1.40;;
17947;SDS011;9099;47.958;11.366;2023-07-13T11:08:03;2.63;;;1.60;;
17947;SDS011;9099;47.958;11.366;2023-07-13T11:10:47;1.60;;;1.50;;
17947;SDS011;9099;47.958;11.366;2023-07-13T11:13:36;1.30;;;1.20;;
17947;SDS011;9099;47.958;11.366;2023-07-13T11:16:42;1.73;;;1.60;;
17947;SDS011;9099;47.958;11.366;2023-07-13T11:19:37;2.75;;;1.50;;
17947;SDS011;9099;47.958;11.366;2023-07-13T11:22:13;1.83;;;1.40;;
17947;SDS011;9099;47.958;11.366;2023-07-13T11:24:49;2.55;;;1.35;;
17947;SDS011;9099;47.958;11.366;2023-07-13T11:27:22;1.15;;;1.10;;
17947;SDS011;9099;47.958;11.366;2023-07-13T11:30:06;1.00;;;1.00;;
17947;SDS011;9099;47.958;11.366;2023-07-13T11:33:08;3.30;;;1.55;;
17947;SDS011;9099;47.958;11.366;2023-07-13T11:35:42;1.48;;;1.30;;
17947;SDS011;9099;47.958;11.366;2023-07-13T11:38:14;2.42;;;1.30;;
17947;SDS011;9099;47.958;11.366;2023-07-13T11:40:43;1.60;;;1.40;;
17947;SDS011;9099;47.958;11.366;2023-07-13T11:43:12;1.55;;;1.30;;
17947;SDS011;9099;47.958;11.366;2023-07-13T11:45:41;2.58;;;1.15;;
17947;SDS011;9099;47.958;11.366;2023-07-13T11:48:17;1.48;;;1.20;;
17947;SDS011;9099;47.958;11.366;2023-07-13T11:50:51;1.98;;;1.20;;
17947;SDS011;9099;47.958;11.366;2023-07-13T11:53:21;2.47;;;1.20;;
17947;SDS011;9099;47.958;11.366;2023-07-13T11:55:51;1.92;;;1.30;;
17947;SDS011;9099;47.958;11.366;2023-07-13T11:58:19;2.75;;;1.50;;
17947;SDS011;9099;47.958;11.366;2023-07-13T12:00:50;1.83;;;1.30;;
17947;SDS011;9099;47.958;11.366;2023-07-13T12:03:20;1.73;;;1.23;;
17947;SDS011;9099;47.958;11.366;2023-07-13T12:06:00;1.10;;;1.10;;
17947;SDS011;9099;47.958;11.366;2023-07-13T12:08:30;2.97;;;1.80;;
17947;SDS011;9099;47.958;11.366;2023-07-13T12:11:14;1.27;;;1.17;;
17947;SDS011;9099;47.958;11.366;2023-07-13T12:13:43;3.10;;;1.30;;
17947;SDS011;9099;47.958;11.366;2023-07-13T12:16:12;1.30;;;1.20;;
17947;SDS011;9099;47.958;11.366;2023-07-13T12:18:42;2.80;;;1.00;;
17947;SDS011;9099;47.958;11.366;2023-07-13T12:21:16;1.27;;;1.17;;
17947;SDS011;9099;47.958;11.366;2023-07-13T12:23:44;1.70;;;1.38;;
17947;SDS011;9099;47.958;11.366;2023-07-13T12:26:14;2.45;;;1.30;;
17947;SDS011;9099;47.958;11.366;2023-07-13T12:28:44;2.70;;;1.10;;
17947;SDS011;9099;47.958;11.366;2023-07-13T12:31:22;1.10;;;1.00;;
17947;SDS011;9099;47.958;11.366;2023-07-13T12:33:57;1.88;;;1.23;;
17947;SDS011;9099;47.958;11.366;2023-07-13T12:36:33;1.80;;;1.40;;
17947;SDS011;9099;47.958;11.366;2023-07-13T12:39:03;2.45;;;1.48;;
17947;SDS011;9099;47.958;11.366;2023-07-13T12:41:38;2.10;;;1.30;;
17947;SDS011;9099;47.958;11.366;2023-07-13T12:44:08;2.33;;;1.42;;
17947;SDS011;9099;47.958;11.366;2023-07-13T12:46:37;2.33;;;1.30;;
17947;SDS011;9099;47.958;11.366;2023-07-13T12:49:05;2.45;;;1.38;;
17947;SDS011;9099;47.958;11.366;2023-07-13T12:51:35;1.95;;;1.25;;
17947;SDS011;9099;47.958;11.366;2023-07-13T12:54:12;2.28;;;1.25;;
17947;SDS011;9099;47.958;11.366;2023-07-13T12:56:42;3.35;;;1.30;;
17947;SDS011;9099;47.958;11.366;2023-07-13T12:59:13;1.30;;;1.20;;
17947;SDS011;9099;47.958;11.366;2023-07-13T13:01:43;1.30;;;1.25;;
17947;SDS011;9099;47.958;11.366;2023-07-13T13:04:12;1.40;;;1.30;;
17947;SDS011;9099;47.958;11.366;2023-07-13T13:06:41;1.23;;;1.13;;
17947;SDS011;9099;47.958;11.366;2023-07-13T13:09:09;2.58;;;1.35;;
17947;SDS011;9099;47.958;11.366;2023-07-13T13:11:40;4.13;;;1.20;;
17947;SDS011;9099;47.958;11.366;2023-07-13T13:14:07;2.38;;;1.85;;
17947;SDS011;9099;47.958;11.366;2023-07-13T13:16:34;1.90;;;1.30;;
17947;SDS011;9099;47.958;11.366;2023-07-13T13:19:05;1.40;;;1.30;;
17947;SDS011;9099;47.958;11.366;2023-07-13T13:21:42;1.80;;;1.27;;
17947;SDS011;9099;47.958;11.366;2023-07-13T13:24:13;2.67;;;1.25;;
17947;SDS011;9099;47.958;11.366;2023-07-13T13:26:42;1.70;;;1.30;;
17947;SDS011;9099;47.958;11.366;2023-07-13T13:29:13;3.97;;;1.20;;
17947;SDS011;9099;47.958;11.366;2023-07-13T13:31:41;1.45;;;1.20;;
17947;SDS011;9099;47.958;11.366;2023-07-13T13:34:09;1.30;;;1.20;;
17947;SDS011;9099;47.958;11.366;2023-07-13T13:36:39;1.40;;;1.30;;
17947;SDS011;9099;47.958;11.366;2023-07-13T13:39:15;1.40;;;1.30;;
17947;SDS011;9099;47.958;11.366;2023-07-13T13:41:47;2.83;;;1.70;;
17947;SDS011;9099;47.958;11.366;2023-07-13T13:44:15;1.70;;;1.58;;
17947;SDS011;9099;47.958;11.366;2023-07-13T13:46:43;2.05;;;1.50;;
17947;SDS011;9099;47.958;11.366;2023-07-13T13:49:13;1.60;;;1.40;;
17947;SDS011;9099;47.958;11.366;2023-07-13T13:51:43;1.90;;;1.30;;
17947;SDS011;9099;47.958;11.366;2023-07-13T13:54:11;1.40;;;1.30;;
17947;SDS011;9099;47.958;11.366;2023-07-13T13:56:41;3.28;;;1.30;;
17947;SDS011;9099;47.958;11.366;2023-07-13T13:59:09;2.58;;;1.30;;
17947;SDS011;9099;47.958;11.366;2023-07-13T14:01:36;2.33;;;1.48;;
17947;SDS011;9099;47.958;11.366;2023-07-13T14:04:03;2.45;;;1.48;;
17947;SDS011;9099;47.958;11.366;2023-07-13T14:06:31;1.40;;;1.30;;
17947;SDS011;9099;47.958;11.366;2023-07-13T14:09:00;1.88;;;1.50;;
17947;SDS011;9099;47.958;11.366;2023-07-13T14:11:29;2.20;;;1.42;;
17947;SDS011;9099;47.958;11.366;2023-07-13T14:13:58;4.78;;;1.60;;
17947;SDS011;9099;47.958;11.366;2023-07-13T14:16:27;1.85;;;1.35;;
17947;SDS011;9099;47.958;11.366;2023-07-13T14:18:56;2.30;;;1.40;;
17947;SDS011;9099;47.958;11.366;2023-07-13T14:21:25;1.42;;;1.33;;
17947;SDS011;9099;47.958;11.366;2023-07-13T14:23:53;1.90;;;1.20;;
17947;SDS011;9099;47.958;11.366;2023-07-13T14:26:22;1.60;;;1.50;;
17947;SDS011;9099;47.958;11.366;2023-07-13T14:28:51;1.55;;;1.45;;
17947;SDS011;9099;47.958;11.366;2023-07-13T14:31:19;2.08;;;1.42;;
17947;SDS011;9099;47.958;11.366;2023-07-13T14:33:47;1.67;;;1.42;;
17947;SDS011;9099;47.958;11.366;2023-07-13T14:36:19;1.42;;;1.33;;
17947;SDS011;9099;47.958;11.366;2023-07-13T14:38:51;5.05;;;1.80;;
17947;SDS011;9099;47.958;11.366;2023-07-13T14:41:18;1.85;;;1.50;;
17947;SDS011;9099;47.958;11.366;2023-07-13T14:43:47;2.45;;;1.50;;
17947;SDS011;9099;47.958;11.366;2023-07-13T14:46:18;1.85;;;1.40;;
17947;SDS011;9099;47.958;11.366;2023-07-13T14:48:52;2.95;;;1.42;;
17947;SDS011;9099;47.958;11.366;2023-07-13T14:51:23;2.35;;;1.42;;
17947;SDS011;9099;47.958;11.366;2023-07-13T14:53:50;1.50;;;1.40;;
17947;SDS011;9099;47.958;11.366;2023-07-13T14:56:17;2.40;;;1.65;;
17947;SDS011;9099;47.958;11.366;2023-07-13T14:58:44;2.08;;;1.65;;
17947;SDS011;9099;47.958;11.366;2023-07-13T15:01:13;3.08;;;1.70;;
17947;SDS011;9099;47.958;11.366;2023-07-13T15:03:43;1.65;;;1.48;;